Time;durP1;ratioP1;P1;durP2;ratioP2;P2;SDS_P1;SDS_P2;PMS_P1;PMS_P2;Temp;Humidity;BMP_temperature;BMP_pressure;BME280_temperature;BME280_humidity;BME280_pressure;Samples;Min_cycle;Max_cycle;Signal;HPM_P1;HPM_P2
2023/02/10 00:02:21;;;;;;;;;;;;;;;7.04;100.00;100902.78;4979662;28;19920;-49
2023/02/10 00:04:47;;;;;;;;;;;;;;;7.90;100.00;100890.06;4978356;28;19925;-50
2023/02/10 00:07:12;;;;;;;;;;;;;;;6.90;100.00;100892.34;4994674;28;20613;-51
2023/02/10 00:09:37;;;;;;;;;;;;;;;7.77;100.00;100881.38;4979639;28;20367;-51
2023/02/10 00:12:02;;;;;;;;;;;;;;;7.42;100.00;100892.16;4980033;28;19925;-49
2023/02/10 00:14:28;;;;;;;;;;;;;;;6.43;100.00;100892.56;5006006;28;19921;-49
2023/02/10 00:16:53;;;;;;;;;;;;;;;6.59;100.00;100896.19;5001167;28;19922;-51
2023/02/10 00:19:19;;;;;;;;;;;;;;;7.60;100.00;100894.06;4981197;28;19918;-48
2023/02/10 00:21:45;;;;;;;;;;;;;;;7.13;100.00;100891.78;4978228;28;20414;-52
2023/02/10 00:24:10;;;;;;;;;;;;;;;7.14;100.00;100893.53;5006848;28;20294;-51
2023/02/10 00:26:35;;;;;;;;;;;;;;;6.60;100.00;100885.13;4979748;28;20005;-52
2023/02/10 00:29:00;;;;;;;;;;;;;;;6.87;100.00;100897.44;4979225;28;19918;-49
2023/02/10 00:31:25;;;;;;;;;;;;;;;6.55;100.00;100899.53;5004371;28;19925;-50
2023/02/10 00:33:51;;;;;;;;;;;;;;;6.64;100.00;100901.38;4979397;28;19929;-52
2023/02/10 00:36:16;;;;;;;;;;;;;;;6.15;100.00;100901.47;4978684;28;19933;-50
2023/02/10 00:38:41;;;;;;;;;;;;;;;5.96;100.00;100909.69;4977769;28;19937;-50
2023/02/10 00:41:11;;;;;;;;;;;;;;;6.00;100.00;100926.81;5021027;28;19917;-51
2023/02/10 00:43:39;;;;;;;;;;;;;;;6.17;100.00;100942.44;4980428;28;19926;-50
2023/02/10 00:46:04;;;;;;;;;;;;;;;6.94;100.00;100951.31;5022625;28;20433;-49
2023/02/10 00:48:29;;;;;;;;;;;;;;;7.27;100.00;100941.50;4978602;28;19922;-52
2023/02/10 00:50:55;;;;;;;;;;;;;;;6.73;100.00;100926.25;4980024;28;20004;-50
2023/02/10 00:53:20;;;;;;;;;;;;;;;6.90;100.00;100929.91;4979643;28;19981;-52
2023/02/10 00:55:45;;;;;;;;;;;;;;;7.28;100.00;100927.00;4978620;28;19926;-51
2023/02/10 00:58:11;;;;;;;;;;;;;;;8.58;100.00;100925.75;4983192;28;20690;-50
2023/02/10 01:00:36;;;;;;;;;;;;;;;7.80;100.00;100896.81;4981462;28;20064;-51
2023/02/10 01:03:01;;;;;;;;;;;;;;;8.17;100.00;100886.88;4980590;28;19992;-50
2023/02/10 01:05:27;;;;;;;;;;;;;;;8.20;100.00;100881.75;4978977;28;19961;-52
2023/02/10 01:07:52;;;;;;;;;;;;;;;8.48;100.00;100874.28;4979413;28;19921;-49
2023/02/10 01:10:18;;;;;;;;;;;;;;;8.00;100.00;100865.34;4978975;28;19940;-49
2023/02/10 01:12:43;;;;;;;;;;;;;;;8.46;100.00;100865.72;4982472;28;19973;-50
2023/02/10 01:15:08;;;;;;;;;;;;;;;8.81;100.00;100855.66;5019003;28;20363;-49
2023/02/10 01:17:34;;;;;;;;;;;;;;;8.45;100.00;100852.03;4981185;28;19922;-49
2023/02/10 01:19:59;;;;;;;;;;;;;;;8.64;100.00;100853.00;4981011;28;19933;-50
2023/02/10 01:22:24;;;;;;;;;;;;;;;8.04;100.00;100850.00;5017487;28;19922;-49
2023/02/10 01:24:49;;;;;;;;;;;;;;;8.22;100.00;100858.69;4981518;28;19937;-51
2023/02/10 01:27:15;;;;;;;;;;;;;;;8.66;100.00;100850.44;4982259;28;19929;-50
2023/02/10 01:29:40;;;;;;;;;;;;;;;7.49;100.00;100863.16;4982803;28;19922;-48
2023/02/10 01:32:05;;;;;;;;;;;;;;;7.42;100.00;100879.31;4982416;28;19960;-52
2023/02/10 01:34:30;;;;;;;;;;;;;;;8.01;100.00;100890.19;4982148;28;19971;-52
2023/02/10 01:36:56;;;;;;;;;;;;;;;8.36;100.00;100881.03;4982295;28;19926;-50
2023/02/10 01:39:21;;;;;;;;;;;;;;;7.75;100.00;100878.81;4982102;28;19918;-49
2023/02/10 01:41:46;;;;;;;;;;;;;;;6.75;100.00;100894.72;4982280;28;20355;-50
2023/02/10 01:44:21;;;;;;;;;;;;;;;5.94;100.00;100901.97;4981361;28;20463;-49
2023/02/10 01:46:46;;;;;;;;;;;;;;;6.78;100.00;100929.75;5004865;28;19921;-49
2023/02/10 01:49:14;;;;;;;;;;;;;;;7.92;100.00;100922.59;5022084;28;19922;-49
2023/02/10 01:52:02;;;;;;;;;;;;;;;7.72;100.00;100909.56;4983025;28;19922;-49
2023/02/10 01:54:32;;;;;;;;;;;;;;;7.73;100.00;100902.72;4982361;28;19932;-50
2023/02/10 01:56:57;;;;;;;;;;;;;;;7.03;100.00;100903.63;5009104;28;19932;-50
2023/02/10 01:59:22;;;;;;;;;;;;;;;8.18;100.00;100904.00;4981741;28;19918;-50
2023/02/10 02:01:48;;;;;;;;;;;;;;;7.82;100.00;100889.97;5017656;28;19921;-49
2023/02/10 02:04:14;;;;;;;;;;;;;;;7.40;100.00;100885.28;4984427;28;19918;-50
2023/02/10 02:06:39;;;;;;;;;;;;;;;6.94;100.00;100895.81;4983589;28;20399;-49
2023/02/10 02:09:04;;;;;;;;;;;;;;;7.54;100.00;100907.66;5016702;28;19960;-48
2023/02/10 02:11:33;;;;;;;;;;;;;;;7.68;100.00;100902.66;4981665;28;19922;-50
2023/02/10 02:14:14;;;;;;;;;;;;;;;7.94;100.00;100900.38;4981643;28;19930;-50
2023/02/10 02:17:17;;;;;;;;;;;;;;;7.16;100.00;100894.41;4981310;28;20027;-51
2023/02/10 02:22:52;;;;;;;;;;;;;;;6.95;100.00;100915.47;5009708;28;19960;-49
2023/02/10 02:25:17;;;;;;;;;;;;;;;7.79;100.00;100915.59;4989687;28;19922;-49
2023/02/10 02:27:42;;;;;;;;;;;;;;;8.64;100.00;100909.50;4980626;28;19940;-50
2023/02/10 02:30:15;;;;;;;;;;;;;;;7.94;100.00;100907.22;4981372;28;20346;-50
2023/02/10 02:32:51;;;;;;;;;;;;;;;7.65;100.00;100901.78;4981124;28;19922;-51
2023/02/10 02:35:25;;;;;;;;;;;;;;;8.21;100.00;100914.31;4980516;28;19930;-50
2023/02/10 02:37:52;;;;;;;;;;;;;;;7.27;100.00;100915.03;5021780;28;19922;-50
2023/02/10 02:40:18;;;;;;;;;;;;;;;7.10;100.00;100923.34;5005546;28;20016;-52
2023/02/10 02:42:43;;;;;;;;;;;;;;;5.97;100.00;100936.97;4980946;28;20019;-51
2023/02/10 02:45:12;;;;;;;;;;;;;;;5.78;100.00;100957.03;5003041;28;19956;-50
2023/02/10 02:47:50;;;;;;;;;;;;;;;6.05;100.00;100982.31;5022077;28;20016;-52
2023/02/10 02:50:15;;;;;;;;;;;;;;;5.57;100.00;100987.31;4980565;28;19972;-51
2023/02/10 02:52:46;;;;;;;;;;;;;;;6.24;100.00;101010.78;4984397;28;19913;-51
2023/02/10 02:55:12;;;;;;;;;;;;;;;6.44;100.00;101026.50;4979663;28;19929;-49
2023/02/10 02:57:43;;;;;;;;;;;;;;;6.39;100.00;101038.34;4986609;28;19969;-50
2023/02/10 03:00:10;;;;;;;;;;;;;;;6.19;100.00;101036.28;4980366;28;19967;-50
2023/02/10 03:02:35;;;;;;;;;;;;;;;5.98;100.00;101046.13;4980232;28;19972;-49
2023/02/10 03:05:01;;;;;;;;;;;;;;;6.91;100.00;101052.00;5013503;28;19918;-49
2023/02/10 03:07:26;;;;;;;;;;;;;;;6.27;100.00;101044.97;4981164;28;19921;-49
2023/02/10 03:09:51;;;;;;;;;;;;;;;6.44;100.00;101044.41;4980790;28;20432;-49
2023/02/10 03:12:17;;;;;;;;;;;;;;;6.93;100.00;101041.78;5015528;28;19922;-49
2023/02/10 03:14:42;;;;;;;;;;;;;;;7.64;100.00;101030.81;4979159;28;20454;-49
2023/02/10 03:17:07;;;;;;;;;;;;;;;7.34;100.00;101009.09;4979844;28;19921;-49
2023/02/10 03:19:32;;;;;;;;;;;;;;;7.45;100.00;100997.28;4977948;28;19914;-50
2023/02/10 03:21:58;;;;;;;;;;;;;;;7.51;100.00;100981.97;4977852;28;20438;-48
2023/02/10 03:24:23;;;;;;;;;;;;;;;7.58;100.00;100961.53;4984341;28;19932;-50
2023/02/10 03:26:48;;;;;;;;;;;;;;;8.00;100.00;100944.88;4983290;28;19924;-51
2023/02/10 03:29:14;;;;;;;;;;;;;;;7.35;100.00;100943.31;4985269;28;19924;-51
2023/02/10 03:31:39;;;;;;;;;;;;;;;7.19;100.00;100952.53;5013981;28;19921;-50
2023/02/10 03:34:05;;;;;;;;;;;;;;;7.65;100.00;100946.25;4979195;28;19922;-50
2023/02/10 03:36:30;;;;;;;;;;;;;;;6.90;100.00;100935.88;4979083;28;19922;-49
2023/02/10 03:38:55;;;;;;;;;;;;;;;7.53;100.00;100939.28;4979904;28;19929;-49
2023/02/10 03:41:20;;;;;;;;;;;;;;;7.27;100.00;100936.38;4983314;28;20314;-49
2023/02/10 03:43:46;;;;;;;;;;;;;;;7.27;100.00;100930.41;4979254;28;19925;-49
2023/02/10 03:46:11;;;;;;;;;;;;;;;7.12;100.00;100928.50;4988274;28;20582;-49
2023/02/10 03:48:36;;;;;;;;;;;;;;;6.76;100.00;100939.09;4978881;28;20411;-49
2023/02/10 03:51:03;;;;;;;;;;;;;;;6.92;100.00;100948.72;4980074;28;19929;-49
2023/02/10 03:53:28;;;;;;;;;;;;;;;7.01;100.00;100938.59;4979544;28;19914;-50
2023/02/10 03:55:53;;;;;;;;;;;;;;;6.43;100.00;100940.28;4978708;28;19925;-52
2023/02/10 03:58:18;;;;;;;;;;;;;;;7.40;100.00;100952.78;4977072;28;19926;-48
2023/02/10 04:00:44;;;;;;;;;;;;;;;7.20;100.00;100949.09;4979195;28;19922;-50
2023/02/10 04:03:09;;;;;;;;;;;;;;;7.32;100.00;100936.44;4979303;28;19925;-50
2023/02/10 04:05:34;;;;;;;;;;;;;;;7.40;100.00;100939.09;4978828;28;19921;-50
2023/02/10 04:07:59;;;;;;;;;;;;;;;7.46;100.00;100927.22;4979024;28;19918;-49
2023/02/10 04:10:25;;;;;;;;;;;;;;;7.16;100.00;100932.84;4983877;28;20705;-49
2023/02/10 04:12:50;;;;;;;;;;;;;;;7.41;100.00;100939.13;4979689;28;20008;-51
2023/02/10 04:15:15;;;;;;;;;;;;;;;7.73;100.00;100936.06;4978190;28;19941;-48
2023/02/10 04:17:41;;;;;;;;;;;;;;;7.52;100.00;100927.28;4979426;28;19925;-49
2023/02/10 04:20:06;;;;;;;;;;;;;;;7.64;100.00;100941.09;4986218;28;19918;-49
2023/02/10 04:22:31;;;;;;;;;;;;;;;8.32;100.00;100927.19;4977847;28;19918;-49
2023/02/10 04:24:57;;;;;;;;;;;;;;;7.66;100.00;100903.50;4978500;28;19929;-49
2023/02/10 04:27:22;;;;;;;;;;;;;;;7.72;100.00;100904.41;4978988;28;19918;-52
2023/02/10 04:29:47;;;;;;;;;;;;;;;8.15;100.00;100897.13;4979620;28;20067;-52
2023/02/10 04:32:12;;;;;;;;;;;;;;;8.48;100.00;100882.84;4979903;28;19952;-52
2023/02/10 04:34:38;;;;;;;;;;;;;;;7.56;100.00;100871.78;4978420;28;19921;-48
2023/02/10 04:37:03;;;;;;;;;;;;;;;8.01;100.00;100879.91;4979401;28;20008;-50
2023/02/10 04:39:28;;;;;;;;;;;;;;;8.37;100.00;100869.94;4979618;28;20011;-52
2023/02/10 04:41:53;;;;;;;;;;;;;;;8.32;100.00;100856.19;4978974;28;19918;-50
2023/02/10 04:44:18;;;;;;;;;;;;;;;8.25;100.00;100844.16;4978229;28;20402;-49
2023/02/10 04:46:44;;;;;;;;;;;;;;;7.54;100.00;100841.00;4980527;28;20033;-49
2023/02/10 04:49:09;;;;;;;;;;;;;;;7.60;100.00;100857.31;4982724;28;19918;-50
2023/02/10 04:51:34;;;;;;;;;;;;;;;8.25;100.00;100857.00;4983065;28;19918;-51
2023/02/10 04:53:59;;;;;;;;;;;;;;;8.24;100.00;100842.44;4980540;28;20016;-51
2023/02/10 04:56:25;;;;;;;;;;;;;;;8.25;100.00;100839.03;4979542;28;19953;-50
2023/02/10 04:58:50;;;;;;;;;;;;;;;8.13;100.00;100829.53;4982305;28;19928;-49
2023/02/10 05:01:15;;;;;;;;;;;;;;;7.89;100.00;100830.22;4986861;28;20365;-49
2023/02/10 05:03:40;;;;;;;;;;;;;;;8.02;100.00;100830.31;4983647;28;19921;-49
2023/02/10 05:06:07;;;;;;;;;;;;;;;7.61;100.00;100823.97;4981960;28;19926;-50
2023/02/10 05:08:33;;;;;;;;;;;;;;;7.42;100.00;100834.91;4982256;28;20005;-52
2023/02/10 05:10:58;;;;;;;;;;;;;;;7.42;100.00;100848.56;4982146;28;20008;-50
2023/02/10 05:13:23;;;;;;;;;;;;;;;8.03;100.00;100842.28;4980298;28;19967;-49
2023/02/10 05:15:48;;;;;;;;;;;;;;;7.83;100.00;100835.28;4981722;28;19932;-49
2023/02/10 05:18:13;;;;;;;;;;;;;;;7.78;100.00;100831.81;4982616;28;20012;-53
2023/02/10 05:20:39;;;;;;;;;;;;;;;7.83;100.00;100840.41;4982716;28;19956;-48
2023/02/10 05:23:04;;;;;;;;;;;;;;;7.88;100.00;100837.88;4978828;28;19969;-51
2023/02/10 05:25:29;;;;;;;;;;;;;;;7.43;100.00;100834.88;4981212;28;20293;-51
2023/02/10 05:27:55;;;;;;;;;;;;;;;7.66;100.00;100849.66;4982028;28;20011;-49
2023/02/10 05:30:20;;;;;;;;;;;;;;;7.20;100.00;100855.16;4981207;28;19918;-49
2023/02/10 05:32:45;;;;;;;;;;;;;;;7.37;100.00;100868.16;4982219;28;19921;-50
2023/02/10 05:35:11;;;;;;;;;;;;;;;7.01;100.00;100871.16;4982218;28;19921;-50
2023/02/10 05:37:36;;;;;;;;;;;;;;;7.52;100.00;100876.00;4981842;28;19917;-49
2023/02/10 05:40:02;;;;;;;;;;;;;;;7.50;100.00;100867.47;4981890;28;19917;-52
2023/02/10 05:42:27;;;;;;;;;;;;;;;7.47;100.00;100875.09;4982381;28;19926;-49
2023/02/10 05:44:52;;;;;;;;;;;;;;;7.75;100.00;100867.69;4980074;28;19992;-49
2023/02/10 05:47:17;;;;;;;;;;;;;;;7.29;100.00;100877.47;4982051;28;20009;-52
2023/02/10 05:49:43;;;;;;;;;;;;;;;7.57;100.00;100878.63;4979584;28;20024;-50
2023/02/10 05:52:08;;;;;;;;;;;;;;;7.84;100.00;100869.47;4982576;28;19988;-50
2023/02/10 05:54:33;;;;;;;;;;;;;;;7.46;100.00;100870.84;4982457;28;19933;-50
2023/02/10 05:56:58;;;;;;;;;;;;;;;7.53;100.00;100872.63;4982379;28;19924;-49
2023/02/10 05:59:24;;;;;;;;;;;;;;;6.57;100.00;100894.44;4987156;28;19914;-49
2023/02/10 06:01:49;;;;;;;;;;;;;;;5.34;100.00;100915.31;4982129;28;19921;-51
2023/02/10 06:04:14;;;;;;;;;;;;;;;6.58;100.00;100947.38;4980623;28;20334;-49
2023/02/10 06:06:39;;;;;;;;;;;;;;;7.25;100.00;100947.44;4981639;28;19921;-51
2023/02/10 06:09:04;;;;;;;;;;;;;;;7.25;100.00;100926.94;4981447;28;19918;-50
2023/02/10 06:11:30;;;;;;;;;;;;;;;7.33;100.00;100913.41;4985693;28;19929;-52
2023/02/10 06:13:55;;;;;;;;;;;;;;;7.46;100.00;100916.97;4981009;28;20624;-49
2023/02/10 06:16:21;;;;;;;;;;;;;;;7.43;100.00;100903.25;4980819;28;19918;-48
2023/02/10 06:18:47;;;;;;;;;;;;;;;7.33;100.00;100909.97;4981866;28;19926;-52
2023/02/10 06:21:13;;;;;;;;;;;;;;;7.44;100.00;100907.56;4983938;28;19929;-49
2023/02/10 06:23:38;;;;;;;;;;;;;;;6.92;100.00;100910.31;4981259;28;19918;-51
2023/02/10 06:26:04;;;;;;;;;;;;;;;7.08;100.00;100916.50;4980073;28;19925;-50
2023/02/10 06:28:29;;;;;;;;;;;;;;;6.61;100.00;100925.22;4981156;28;19991;-49
2023/02/10 06:30:54;;;;;;;;;;;;;;;6.75;100.00;100925.44;4980844;28;19925;-49
2023/02/10 06:33:19;;;;;;;;;;;;;;;6.88;100.00;100926.47;4981122;28;19964;-51
2023/02/10 06:35:45;;;;;;;;;;;;;;;6.81;100.00;100924.66;4979474;28;19953;-50
2023/02/10 06:38:10;;;;;;;;;;;;;;;5.86;100.00;100922.28;4981119;28;19933;-51
2023/02/10 06:40:36;;;;;;;;;;;;;;;6.58;100.00;100947.38;4980971;28;19981;-50
2023/02/10 06:43:01;;;;;;;;;;;;;;;6.87;100.00;100946.09;4983246;28;19947;-49
2023/02/10 06:45:26;;;;;;;;;;;;;;;7.10;100.00;100943.84;4985798;28;19944;-49
2023/02/10 06:47:52;;;;;;;;;;;;;;;6.82;100.00;100939.19;4979004;28;19932;-50
2023/02/10 06:50:17;;;;;;;;;;;;;;;6.45;100.00;100959.97;4979104;28;19926;-49
2023/02/10 06:52:42;;;;;;;;;;;;;;;6.57;100.00;100954.19;4980770;28;20298;-49
2023/02/10 06:55:08;;;;;;;;;;;;;;;6.94;100.00;100967.53;4979345;28;19928;-49
2023/02/10 06:57:35;;;;;;;;;;;;;;;6.88;100.00;100972.56;4980869;28;20339;-49
2023/02/10 07:00:01;;;;;;;;;;;;;;;7.36;100.00;100961.25;4980054;28;19921;-50
2023/02/10 07:02:26;;;;;;;;;;;;;;;6.99;100.00;100952.25;4980669;28;20378;-49
2023/02/10 07:04:51;;;;;;;;;;;;;;;6.59;100.00;100949.97;4979561;28;19976;-49
2023/02/10 07:07:16;;;;;;;;;;;;;;;6.64;100.00;100961.13;4980561;28;19922;-49
2023/02/10 07:09:42;;;;;;;;;;;;;;;6.54;100.00;100969.47;4979274;28;20387;-48
2023/02/10 07:12:07;;;;;;;;;;;;;;;7.03;100.00;100971.94;4979852;28;19933;-49
2023/02/10 07:14:32;;;;;;;;;;;;;;;6.93;100.00;100975.19;4984310;28;19992;-49
2023/02/10 07:16:58;;;;;;;;;;;;;;;6.41;100.00;100986.34;4981734;28;19929;-49
2023/02/10 07:19:23;;;;;;;;;;;;;;;7.06;100.00;100977.94;4980087;28;19921;-53
2023/02/10 07:21:48;;;;;;;;;;;;;;;7.10;100.00;100969.47;4980264;28;19924;-49
2023/02/10 07:24:14;;;;;;;;;;;;;;;7.09;100.00;100961.75;4979394;28;20651;-50
2023/02/10 07:26:39;;;;;;;;;;;;;;;6.95;100.00;100964.13;4982093;28;20001;-52
2023/02/10 07:29:05;;;;;;;;;;;;;;;6.97;100.00;100972.69;4985142;28;20008;-51
2023/02/10 07:31:30;;;;;;;;;;;;;;;7.12;100.00;100960.13;4979982;28;19972;-50
2023/02/10 07:33:55;;;;;;;;;;;;;;;6.91;100.00;100962.34;4979487;28;19917;-50
2023/02/10 07:36:20;;;;;;;;;;;;;;;7.20;100.00;100957.66;4979264;28;19925;-49
2023/02/10 07:38:45;;;;;;;;;;;;;;;7.00;100.00;100962.53;4985633;28;20684;-49
2023/02/10 07:41:11;;;;;;;;;;;;;;;7.23;100.00;100965.38;4983647;28;20580;-48
2023/02/10 07:43:36;;;;;;;;;;;;;;;7.36;100.00;100968.09;4984273;28;19971;-48
2023/02/10 07:46:01;;;;;;;;;;;;;;;7.33;100.00;100956.09;4977759;28;21080;-48
2023/02/10 07:48:27;;;;;;;;;;;;;;;7.23;100.00;100959.38;4979639;28;20344;-49
2023/02/10 07:50:52;;;;;;;;;;;;;;;7.51;100.00;100950.34;4982303;28;20079;-48
2023/02/10 07:53:18;;;;;;;;;;;;;;;7.28;100.00;100965.44;4979371;28;19924;-50
2023/02/10 07:55:43;;;;;;;;;;;;;;;6.53;100.00;100959.25;4982614;28;19969;-49
2023/02/10 07:58:08;;;;;;;;;;;;;;;6.85;100.00;100978.50;4977604;28;20032;-48
2023/02/10 08:00:34;;;;;;;;;;;;;;;7.03;100.00;100977.06;4980040;28;20494;-51
2023/02/10 08:02:59;;;;;;;;;;;;;;;6.59;100.00;100980.69;4994533;28;20036;-49
2023/02/10 08:05:26;;;;;;;;;;;;;;;6.68;100.00;100985.94;4979213;28;19929;-48
2023/02/10 08:07:52;;;;;;;;;;;;;;;6.33;100.00;100987.06;4982874;28;19952;-50
2023/02/10 08:10:17;;;;;;;;;;;;;;;6.36;100.00;100998.19;4980003;28;19925;-50
2023/02/10 08:12:42;;;;;;;;;;;;;;;6.56;100.00;101016.44;4979127;28;19920;-48
2023/02/10 08:15:08;;;;;;;;;;;;;;;6.31;100.00;101004.06;5002732;28;19926;-48
2023/02/10 08:17:33;;;;;;;;;;;;;;;6.41;100.00;101011.94;4979600;28;20016;-48
2023/02/10 08:19:58;;;;;;;;;;;;;;;6.54;100.00;101020.69;4979965;28;19917;-48
2023/02/10 08:22:24;;;;;;;;;;;;;;;6.69;100.00;101018.38;4982189;28;19926;-49
2023/02/10 08:24:49;;;;;;;;;;;;;;;6.93;100.00;101017.03;4982704;28;19918;-48
2023/02/10 08:27:14;;;;;;;;;;;;;;;5.86;100.00;101016.88;4981764;28;19917;-48
2023/02/10 08:29:39;;;;;;;;;;;;;;;6.56;100.00;101025.84;4983769;28;19933;-48
2023/02/10 08:32:05;;;;;;;;;;;;;;;7.09;100.00;101034.38;4983551;28;20291;-48
2023/02/10 08:34:30;;;;;;;;;;;;;;;6.86;100.00;101028.03;4983930;28;20755;-48
2023/02/10 08:36:55;;;;;;;;;;;;;;;6.89;100.00;101016.13;4986331;28;19917;-49
2023/02/10 08:39:21;;;;;;;;;;;;;;;6.70;100.00;101025.25;4983093;28;20067;-48
2023/02/10 08:41:46;;;;;;;;;;;;;;;6.87;100.00;101032.31;4983686;28;19917;-50
2023/02/10 08:44:12;;;;;;;;;;;;;;;7.01;100.00;101035.09;4982556;28;19945;-48
2023/02/10 08:46:37;;;;;;;;;;;;;;;6.94;100.00;101031.59;4983653;28;20455;-48
2023/02/10 08:49:03;;;;;;;;;;;;;;;7.08;100.00;101037.75;5025385;28;19924;-48
2023/02/10 08:51:30;;;;;;;;;;;;;;;7.47;100.00;101046.00;5024599;28;19918;-49
2023/02/10 08:53:58;;;;;;;;;;;;;;;7.09;100.00;101029.25;4984220;28;20510;-51
2023/02/10 08:56:23;;;;;;;;;;;;;;;7.50;100.00;101030.66;4982105;28;19918;-49
2023/02/10 08:58:50;;;;;;;;;;;;;;;6.72;100.00;101037.19;4983041;28;19921;-49
2023/02/10 09:01:16;;;;;;;;;;;;;;;6.44;100.00;101040.16;4983326;28;19921;-49
2023/02/10 09:03:42;;;;;;;;;;;;;;;7.00;100.00;101054.75;4982760;28;19991;-48
2023/02/10 09:06:30;;;;;;;;;;;;;;;7.31;100.00;101045.78;4981793;28;19922;-49
2023/02/10 09:08:55;;;;;;;;;;;;;;;6.90;100.00;101040.91;4984903;28;19971;-48
2023/02/10 09:11:23;;;;;;;;;;;;;;;7.27;100.00;101043.16;4983092;28;20408;-48
2023/02/10 09:13:48;;;;;;;;;;;;;;;7.35;100.00;101038.16;4982797;28;19918;-48
2023/02/10 09:16:13;;;;;;;;;;;;;;;7.61;100.00;101023.97;4982050;28;20704;-49
2023/02/10 09:18:38;;;;;;;;;;;;;;;7.41;100.00;101016.03;4982591;28;19918;-49
2023/02/10 09:21:04;;;;;;;;;;;;;;;7.36;100.00;101017.66;4985289;28;20009;-48
2023/02/10 09:23:29;;;;;;;;;;;;;;;7.79;100.00;101033.59;4982544;28;19925;-49
2023/02/10 09:25:54;;;;;;;;;;;;;;;7.78;100.00;101021.63;4982007;28;19957;-49
2023/02/10 09:28:20;;;;;;;;;;;;;;;7.75;100.00;101017.31;4980545;28;20347;-51
2023/02/10 09:30:45;;;;;;;;;;;;;;;7.30;100.00;101017.59;4982645;28;20496;-50
2023/02/10 09:33:10;;;;;;;;;;;;;;;8.52;100.00;101015.56;4982419;28;19917;-49
2023/02/10 09:35:36;;;;;;;;;;;;;;;8.67;100.00;101012.28;4984385;28;20558;-49
2023/02/10 09:38:01;;;;;;;;;;;;;;;8.69;100.00;101018.28;4986082;28;20426;-50
2023/02/10 09:40:28;;;;;;;;;;;;;;;8.49;100.00;101007.00;4982494;28;19918;-48
2023/02/10 09:43:25;;;;;;;;;;;;;;;9.37;100.00;101004.19;5020298;28;20684;-49
2023/02/10 09:45:51;;;;;;;;;;;;;;;8.25;100.00;100993.03;4962460;28;19917;-49
2023/02/10 09:48:25;;;;;;;;;;;;;;;9.12;100.00;101007.44;5020840;28;19921;-51
2023/02/10 09:50:53;;;;;;;;;;;;;;;9.32;100.00;101003.28;4980930;28;20016;-51
2023/02/10 09:53:20;;;;;;;;;;;;;;;8.96;100.00;100994.50;5022055;28;19918;-50
2023/02/10 09:55:55;;;;;;;;;;;;;;;9.12;100.00;100986.88;4981530;28;19932;-49
2023/02/10 09:58:30;;;;;;;;;;;;;;;8.49;100.00;100991.59;5022767;28;19917;-50
2023/02/10 10:00:57;;;;;;;;;;;;;;;8.09;100.00;101006.56;5016166;28;19918;-51
2023/02/10 10:03:24;;;;;;;;;;;;;;;8.61;100.00;101016.50;4982001;28;19921;-51
2023/02/10 10:06:08;;;;;;;;;;;;;;;7.62;100.00;101020.56;5022177;28;19925;-49
2023/02/10 10:08:43;;;;;;;;;;;;;;;7.65;100.00;101043.69;4982140;28;20381;-48
2023/02/10 10:11:23;;;;;;;;;;;;;;;8.02;100.00;101061.22;4981883;28;19925;-51
2023/02/10 10:13:48;;;;;;;;;;;;;;;8.23;100.00;101051.19;4981675;28;19953;-48
2023/02/10 10:16:19;;;;;;;;;;;;;;;8.89;100.00;101044.09;5016204;28;19968;-49
2023/02/10 10:18:44;;;;;;;;;;;;;;;9.25;100.00;101027.22;5021304;28;20390;-49
2023/02/10 10:21:17;;;;;;;;;;;;;;;9.26;100.00;101020.38;5000002;28;19976;-48
2023/02/10 10:23:51;;;;;;;;;;;;;;;9.17;100.00;100993.78;5021687;28;20441;-50
2023/02/10 10:26:24;;;;;;;;;;;;;;;8.42;100.00;100984.69;4983910;28;20016;-48
2023/02/10 10:28:52;;;;;;;;;;;;;;;8.67;100.00;100991.72;5016950;28;19918;-49
2023/02/10 10:31:19;;;;;;;;;;;;;;;8.43;100.00;101006.94;5028397;28;19922;-48
2023/02/10 10:33:47;;;;;;;;;;;;;;;8.46;100.00;101014.63;4985071;28;19917;-51
2023/02/10 10:36:16;;;;;;;;;;;;;;;8.72;100.00;101014.88;4980425;28;19925;-49
2023/02/10 10:38:49;;;;;;;;;;;;;;;8.41;100.00;101000.91;4981213;28;19917;-50
2023/02/10 10:41:14;;;;;;;;;;;;;;;8.54;100.00;100997.59;5018722;28;20011;-50
2023/02/10 10:43:45;;;;;;;;;;;;;;;7.96;100.00;100996.19;5014373;28;20963;-49
2023/02/10 10:46:11;;;;;;;;;;;;;;;9.19;100.00;100999.78;4982091;28;20028;-49
2023/02/10 10:48:37;;;;;;;;;;;;;;;9.15;100.00;100969.78;4979599;28;19925;-49
2023/02/10 10:51:03;;;;;;;;;;;;;;;10.30;100.00;100966.72;5028176;28;19913;-50
2023/02/10 10:53:28;;;;;;;;;;;;;;;9.85;100.00;100927.16;5013451;28;20887;-49
2023/02/10 10:55:54;;;;;;;;;;;;;;;9.36;100.00;100934.72;4980470;28;19922;-49
2023/02/10 10:58:35;;;;;;;;;;;;;;;10.00;100.00;100928.91;4981144;28;19921;-49
2023/02/10 11:01:01;;;;;;;;;;;;;;;10.58;100.00;100905.75;5013452;28;20013;-49
2023/02/10 11:03:26;;;;;;;;;;;;;;;10.30;100.00;100910.06;4980065;28;20395;-48
2023/02/10 11:06:01;;;;;;;;;;;;;;;9.67;100.00;100909.97;4979698;28;20291;-51
2023/02/10 11:08:27;;;;;;;;;;;;;;;9.87;100.00;100915.13;4980994;28;19925;-50
2023/02/10 11:10:57;;;;;;;;;;;;;;;8.65;100.00;100916.38;4980661;28;20283;-48
2023/02/10 11:13:23;;;;;;;;;;;;;;;8.76;100.00;100932.72;5018747;28;19960;-50
2023/02/10 11:15:48;;;;;;;;;;;;;;;9.17;100.00;100937.22;4979717;28;20033;-50
2023/02/10 11:18:23;;;;;;;;;;;;;;;10.19;100.00;100932.34;4980517;28;20040;-49
2023/02/10 11:20:55;;;;;;;;;;;;;;;9.47;100.00;100920.22;4980196;28;20322;-51
2023/02/10 11:23:21;;;;;;;;;;;;;;;9.18;100.00;100917.50;4979928;28;19922;-49
2023/02/10 11:25:47;;;;;;;;;;;;;;;10.37;100.00;100911.78;4979920;28;20375;-50
2023/02/10 11:28:19;;;;;;;;;;;;;;;9.84;100.00;100890.28;4978678;28;19921;-50
2023/02/10 11:30:46;;;;;;;;;;;;;;;8.74;100.00;100890.75;4980530;28;20717;-49
2023/02/10 11:33:22;;;;;;;;;;;;;;;10.22;100.00;100891.16;5017545;28;19917;-50
2023/02/10 11:35:52;;;;;;;;;;;;;;;9.73;100.00;100871.38;5023412;28;19945;-50
2023/02/10 11:38:19;;;;;;;;;;;;;;;9.36;100.00;100885.88;5025931;28;20015;-49
2023/02/10 11:40:51;;;;;;;;;;;;;;;10.03;100.00;100875.72;5012780;28;19963;-50
2023/02/10 11:43:16;;;;;;;;;;;;;;;9.50;100.00;100868.75;4980534;28;19968;-49
2023/02/10 11:45:50;;;;;;;;;;;;;;;9.52;100.00;100882.50;5013306;28;19922;-49
2023/02/10 11:48:16;;;;;;;;;;;;;;;9.77;100.00;100861.97;4979951;28;20548;-51
2023/02/10 11:50:41;;;;;;;;;;;;;;;10.71;100.00;100862.78;4978276;28;19966;-50
2023/02/10 11:53:21;;;;;;;;;;;;;;;10.08;100.00;100849.09;4980175;28;20609;-49
2023/02/10 11:55:52;;;;;;;;;;;;;;;9.35;100.00;100845.56;5022948;28;19922;-50
2023/02/10 12:01:14;;;;;;;;;;;;;;;10.83;100.00;100855.03;4980215;28;19928;-52
2023/02/10 12:03:40;;;;;;;;;;;;;;;9.14;100.00;100847.22;5026437;28;19917;-50
2023/02/10 12:06:31;;;;;;;;;;;;;;;9.96;100.00;100873.13;4981002;28;20537;-49
2023/02/10 12:08:56;;;;;;;;;;;;;;;10.13;100.00;100845.69;4987930;28;20061;-51
2023/02/10 12:11:31;;;;;;;;;;;;;;;9.62;100.00;100837.06;4981115;28;20410;-50
2023/02/10 12:14:11;;;;;;;;;;;;;;;8.92;100.00;100871.16;4979474;28;19917;-49
2023/02/10 12:16:42;;;;;;;;;;;;;;;9.73;100.00;100861.09;4980011;28;20044;-49
2023/02/10 12:19:19;;;;;;;;;;;;;;;10.10;100.00;100855.09;5014125;28;19961;-50
2023/02/10 12:21:54;;;;;;;;;;;;;;;10.13;100.00;100844.81;4979923;28;20004;-49
2023/02/10 12:24:22;;;;;;;;;;;;;;;8.99;100.00;100860.03;5020396;28;19921;-50
2023/02/10 12:26:48;;;;;;;;;;;;;;;9.10;100.00;100866.09;4979988;28;19953;-48
2023/02/10 12:29:40;;;;;;;;;;;;;;;10.25;100.00;100844.81;4979956;28;19917;-51
2023/02/10 12:32:15;;;;;;;;;;;;;;;8.73;100.00;100857.31;4980741;28;19918;-49
2023/02/10 12:34:49;;;;;;;;;;;;;;;11.08;100.00;100829.13;4979176;28;19926;-51
2023/02/10 12:37:14;;;;;;;;;;;;;;;10.14;100.00;100811.34;4980063;28;19922;-50
2023/02/10 12:39:41;;;;;;;;;;;;;;;8.55;100.00;100817.88;4979647;28;19957;-49
2023/02/10 12:42:06;;;;;;;;;;;;;;;9.70;100.00;100814.78;5010092;28;19976;-49